Time;durP1;ratioP1;P1;durP2;ratioP2;P2;SDS_P1;SDS_P2;PMS_P1;PMS_P2;Temp;Humidity;BMP_temperature;BMP_pressure;BME280_temperature;BME280_humidity;BME280_pressure;Samples;Min_cycle;Max_cycle;Signal;HPM_P1;HPM_P2
2021/03/25 00:01:05;;;;;;;240.60;121.87;;;;;;;2.67;80.30;97697.29;1819333;78;25742;-84
2021/03/25 00:03:32;;;;;;;252.35;125.02;;;;;;;2.67;80.30;97693.29;1819376;78;25668;-84
2021/03/25 00:05:59;;;;;;;248.30;121.85;;;;;;;2.67;80.32;97687.95;1819319;78;25931;-84
2021/03/25 00:08:27;;;;;;;250.93;122.50;;;;;;;2.67;80.31;97691.95;1819364;78;27509;-84
2021/03/25 00:10:54;;;;;;;262.25;126.65;;;;;;;2.67;80.33;97689.29;1819196;78;26219;-84
2021/03/25 00:13:22;;;;;;;252.40;124.97;;;;;;;2.68;80.34;97689.64;1819097;78;25765;-84
2021/03/25 00:15:50;;;;;;;249.22;123.07;;;;;;;2.69;80.34;97689.48;1819238;78;25599;-84
2021/03/25 00:18:18;;;;;;;256.82;126.78;;;;;;;2.68;80.31;97682.97;1819310;78;25643;-83
2021/03/25 00:20:46;;;;;;;249.70;122.07;;;;;;;2.68;80.30;97681.14;1819404;78;27483;-84
2021/03/25 00:23:15;;;;;;;258.85;126.10;;;;;;;2.69;80.30;97681.98;1819201;78;25642;-84
2021/03/25 00:25:43;;;;;;;256.40;122.98;;;;;;;2.68;80.28;97683.81;1819184;78;25680;-84
2021/03/25 00:28:17;;;;;;;258.55;124.10;;;;;;;2.69;80.28;97683.31;1819350;78;25707;-83
2021/03/25 00:30:44;;;;;;;252.05;123.70;;;;;;;2.68;80.30;97682.97;1819531;78;26547;-83
2021/03/25 00:33:16;;;;;;;240.62;118.85;;;;;;;2.67;80.27;97679.47;1819544;78;27597;-84
2021/03/25 00:35:44;;;;;;;255.92;120.57;;;;;;;2.66;80.26;97680.45;1819616;78;26207;-84
2021/03/25 00:38:13;;;;;;;252.07;120.00;;;;;;;2.66;80.30;97679.13;1819549;78;25874;-84
2021/03/25 00:40:42;;;;;;;251.75;120.55;;;;;;;2.67;80.31;97673.30;1819347;78;26255;-84
2021/03/25 00:43:11;;;;;;;262.32;125.60;;;;;;;2.65;80.27;97672.15;1819298;78;25756;-84
2021/03/25 00:45:43;;;;;;;251.12;124.50;;;;;;;2.66;80.29;97667.63;1819451;78;27476;-83
2021/03/25 00:48:11;;;;;;;258.63;122.98;;;;;;;2.66;80.26;97668.95;1819457;78;25674;-83
2021/03/25 00:50:46;;;;;;;256.80;124.62;;;;;;;2.65;80.27;97675.31;1819536;78;25786;-83
2021/03/25 00:53:18;;;;;;;249.40;121.10;;;;;;;2.62;80.27;97679.11;1819544;78;26568;-83
2021/03/25 00:55:46;;;;;;;;;;;;;;;2.62;80.28;97675.61;1822237;78;25722;-83
2021/03/25 00:58:13;;;;;;;244.43;117.50;;;;;;;2.63;80.31;97673.29;1819379;78;27586;-83
2021/03/25 01:00:44;;;;;;;259.40;121.75;;;;;;;2.63;80.34;97669.30;1819379;78;25662;-83
2021/03/25 01:03:14;;;;;;;254.78;121.37;;;;;;;2.63;80.31;97669.30;1819533;78;25630;-83
2021/03/25 01:05:42;;;;;;;253.25;122.50;;;;;;;2.62;80.30;97667.62;1819355;78;25986;-83
2021/03/25 01:08:11;;;;;;;251.70;120.05;;;;;;;2.61;80.34;97660.61;1787032;80;25648;-84
2021/03/25 01:13:36;;;;;;;254.00;121.47;;;;;;;2.64;80.34;97654.98;1849255;76;35304;-83
2021/03/25 01:16:05;;;;;;;244.37;120.55;;;;;;;2.61;80.35;97660.12;1820159;78;25812;-83
2021/03/25 01:18:33;;;;;;;248.10;123.33;;;;;;;2.60;80.33;97656.27;1820245;78;27486;-83
2021/03/25 01:21:01;;;;;;;262.93;127.62;;;;;;;2.62;80.35;97652.47;1820050;78;26553;-83
2021/03/25 01:23:28;;;;;;;246.95;118.37;;;;;;;2.66;80.38;97647.63;1820178;78;25272;-83
2021/03/25 01:25:56;;;;;;;251.65;118.90;;;;;;;2.68;80.37;97649.16;1820018;78;25916;-83
2021/03/25 01:28:23;;;;;;;245.17;119.40;;;;;;;2.69;80.30;97648.66;1820211;78;25821;-83
2021/03/25 01:30:51;;;;;;;238.62;116.90;;;;;;;2.66;80.24;97652.97;1820172;78;28050;-83
2021/03/25 01:33:21;;;;;;;242.15;119.00;;;;;;;2.62;80.21;97651.63;1820067;78;26099;-83
2021/03/25 01:35:48;;;;;;;238.57;114.47;;;;;;;2.60;80.23;97642.94;1820116;77;25677;-83
2021/03/25 01:38:21;;;;;;;222.95;111.75;;;;;;;2.59;80.26;97646.59;1819989;77;25800;-83
2021/03/25 01:40:58;;;;;;;226.60;112.72;;;;;;;2.58;80.24;97640.92;1820333;78;25666;-83
2021/03/25 01:43:36;;;;;;;216.78;108.47;;;;;;;2.57;80.21;97643.25;1820106;78;28421;-83
2021/03/25 01:46:28;;;;;;;229.07;111.30;;;;;;;2.52;80.17;97644.57;1820126;78;25626;-83
2021/03/25 01:49:00;;;;;;;239.27;114.80;;;;;;;2.48;80.22;97639.69;1820209;78;34859;-83
2021/03/25 01:51:48;;;;;;;231.87;110.93;;;;;;;2.48;80.30;97635.70;1820348;77;25686;-84
2021/03/25 01:54:46;;;;;;;227.95;107.90;;;;;;;2.49;80.35;97636.88;1820145;77;25792;-83
2021/03/25 01:57:51;;;;;;;208.25;106.32;;;;;;;2.48;80.36;97633.03;1820103;78;27501;-83
2021/03/25 02:00:42;;;;;;;214.97;108.00;;;;;;;2.49;80.34;97630.22;1726527;83;26112;-83
2021/03/25 02:03:49;;;;;;;223.43;110.65;;;;;;;2.48;80.33;97631.20;1804784;77;26600;-83
2021/03/25 02:06:40;;;;;;;208.93;106.17;;;;;;;2.46;80.31;97626.52;1820065;78;25796;-83
2021/03/25 02:09:50;;;;;;;222.60;108.45;;;;;;;2.44;80.33;97635.16;1810966;78;26260;-84
2021/03/25 02:12:34;;;;;;;228.22;109.65;;;;;;;2.40;80.33;97628.98;1820132;78;30565;-83
2021/03/25 02:15:28;;;;;;;210.70;105.83;;;;;;;2.39;80.38;97629.48;1820883;78;25822;-83
2021/03/25 02:18:00;;;;;;;214.53;106.55;;;;;;;2.36;80.35;97625.78;1820147;78;25542;-83
2021/03/25 02:20:59;;;;;;;207.22;101.95;;;;;;;2.37;80.36;97624.80;1820815;78;25707;-83
2021/03/25 02:24:05;;;;;;;209.90;105.25;;;;;;;2.36;80.36;97619.62;1820250;78;25797;-83
2021/03/25 02:27:02;;;;;;;211.10;105.70;;;;;;;2.36;80.37;97625.78;1820377;78;27561;-83
2021/03/25 02:29:47;;;;;;;210.48;108.97;;;;;;;2.38;80.39;97625.63;1820196;77;26137;-83
2021/03/25 02:32:28;;;;;;;210.25;104.50;;;;;;;2.39;80.35;97622.82;1820409;77;25727;-83
2021/03/25 02:35:07;;;;;;;209.30;104.72;;;;;;;2.35;80.30;97624.60;1820425;78;26143;-83
2021/03/25 02:37:35;;;;;;;202.30;104.65;;;;;;;2.34;80.35;97625.59;1820352;78;25873;-83
2021/03/25 02:40:16;;;;;;;196.30;102.67;;;;;;;2.33;80.37;97615.92;1820256;77;27521;-83
2021/03/25 02:42:52;;;;;;;201.05;105.50;;;;;;;2.33;80.37;97619.92;1819497;77;25707;-83
2021/03/25 02:45:29;;;;;;;199.00;103.90;;;;;;;2.32;80.38;97621.75;1820143;78;25307;-83
2021/03/25 02:48:08;;;;;;;210.82;103.40;;;;;;;2.31;80.38;97621.90;1820325;77;26144;-84
2021/03/25 02:50:49;;;;;;;198.13;103.12;;;;;;;2.30;80.38;97617.06;1820393;78;25798;-84
2021/03/25 02:53:36;;;;;;;198.02;100.78;;;;;;;2.31;80.39;97614.74;1820264;78;27484;-85
2021/03/25 02:56:27;;;;;;;202.15;101.55;;;;;;;2.33;80.42;97611.44;1820253;78;25673;-84
2021/03/25 02:59:06;;;;;;;201.22;99.05;;;;;;;2.32;80.35;97616.42;1820271;78;25784;-85
2021/03/25 03:01:37;;;;;;;197.47;99.77;;;;;;;2.29;80.32;97614.09;1816894;78;26217;-84
2021/03/25 03:04:19;;;;;;;197.22;99.00;;;;;;;2.28;80.34;97616.91;1820464;78;25702;-84
2021/03/25 03:07:04;;;;;;;192.53;98.10;;;;;;;2.28;80.35;97620.41;1820307;77;27440;-84
2021/03/25 03:09:39;;;;;;;198.07;99.00;;;;;;;2.26;80.37;97617.05;1820287;78;25996;-84
2021/03/25 03:12:15;;;;;;;201.15;98.15;;;;;;;2.25;80.37;97618.04;1820216;78;25685;-84
2021/03/25 03:15:02;;;;;;;197.60;100.10;;;;;;;2.24;80.37;97620.36;1820217;78;25666;-84
2021/03/25 03:17:46;;;;;;;202.72;99.22;;;;;;;2.25;80.36;97620.70;1820323;78;25671;-84
2021/03/25 03:20:36;;;;;;;199.97;99.60;;;;;;;2.23;80.33;97621.34;1820329;78;27494;-84
2021/03/25 03:23:04;;;;;;;205.07;100.35;;;;;;;2.21;80.34;97626.48;1820198;78;25670;-84
2021/03/25 03:25:32;;;;;;;199.60;99.67;;;;;;;2.17;80.37;97615.32;1820304;78;25335;-84
2021/03/25 03:28:20;;;;;;;195.70;99.00;;;;;;;2.17;80.40;97623.31;1820329;78;25709;-84
2021/03/25 03:30:51;;;;;;;203.45;99.50;;;;;;;2.16;80.44;97616.31;1819988;77;25681;-84
2021/03/25 03:33:43;;;;;;;208.82;100.80;;;;;;;2.14;80.44;97618.28;1820346;78;27488;-84
2021/03/25 03:36:23;;;;;;;187.00;95.38;;;;;;;2.11;80.43;97618.58;1819852;78;26275;-84
2021/03/25 03:39:02;;;;;;;187.30;95.65;;;;;;;2.14;80.53;97623.61;1820325;78;26195;-84
2021/03/25 03:41:35;;;;;;;187.43;95.80;;;;;;;2.16;80.52;97621.63;1820271;78;26259;-84
2021/03/25 03:44:06;;;;;;;190.43;95.55;;;;;;;2.12;80.50;97617.59;1818690;78;25870;-84
2021/03/25 03:46:36;;;;;;;179.07;88.60;;;;;;;2.12;80.51;97623.76;1820302;78;27491;-84
2021/03/25 03:49:14;;;;;;;175.03;91.02;;;;;;;2.12;80.49;97621.59;1820079;78;25686;-84
2021/03/25 03:51:52;;;;;;;177.62;89.13;;;;;;;2.11;80.49;97629.23;1820179;77;25904;-84
2021/03/25 03:54:21;;;;;;;166.77;87.35;;;;;;;2.10;80.47;97629.73;1820214;78;26125;-84
2021/03/25 03:57:03;;;;;;;160.90;86.32;;;;;;;2.10;80.48;97626.23;1820270;78;25780;-84
2021/03/25 03:59:55;;;;;;;177.33;87.77;;;;;;;2.10;80.47;97627.56;1815392;78;27605;-84
2021/03/25 04:02:48;;;;;;;163.55;83.30;;;;;;;2.09;80.50;97627.21;1819422;78;25768;-84
2021/03/25 04:05:28;;;;;;;159.37;81.57;;;;;;;2.06;80.48;97627.02;1820235;77;25731;-83
2021/03/25 04:08:10;;;;;;;154.42;80.10;;;;;;;2.07;80.54;97626.52;1820156;77;25707;-84
2021/03/25 04:10:42;;;;;;;155.30;80.62;;;;;;;2.06;80.54;97621.69;1820352;77;25758;-84
2021/03/25 04:13:23;;;;;;;124.58;60.33;;;;;;;2.05;80.54;97623.20;1820245;78;28510;-83
2021/03/25 04:15:53;;;;;;;144.53;76.75;;;;;;;2.06;80.54;97618.19;1820186;77;25662;-83
2021/03/25 04:18:44;;;;;;;145.90;79.20;;;;;;;2.05;80.50;97617.35;1820214;77;25776;-83
2021/03/25 04:21:35;;;;;;;135.60;70.75;;;;;;;2.05;80.49;97629.34;1820156;77;26325;-83
2021/03/25 04:24:08;;;;;;;141.62;72.20;;;;;;;2.05;80.48;97624.53;1820331;78;25659;-83
2021/03/25 04:26:46;;;;;;;142.75;75.28;;;;;;;2.06;80.52;97629.67;1820281;77;28442;-84
2021/03/25 04:29:22;;;;;;;138.22;74.85;;;;;;;2.06;80.52;97627.02;1820098;77;25757;-83
2021/03/25 04:31:49;;;;;;;143.32;74.00;;;;;;;2.06;80.50;97631.50;1819279;78;25710;-83
2021/03/25 04:34:16;;;;;;;148.35;77.12;;;;;;;2.06;80.52;97631.02;1820219;78;25738;-84
2021/03/25 04:36:46;;;;;;;146.45;76.47;;;;;;;2.09;80.51;97633.88;1820253;77;25776;-84
2021/03/25 04:39:17;;;;;;;146.00;77.05;;;;;;;2.11;80.51;97631.89;1820321;78;27488;-84
2021/03/25 04:41:46;;;;;;;149.85;76.17;;;;;;;2.13;80.51;97631.25;1820149;78;25801;-84
2021/03/25 04:44:37;;;;;;;142.93;74.77;;;;;;;2.14;80.49;97630.27;1820242;78;25763;-83
2021/03/25 04:47:25;;;;;;;147.02;76.12;;;;;;;2.13;80.45;97631.25;1820067;78;25735;-83
2021/03/25 04:50:06;;;;;;;149.35;76.12;;;;;;;2.13;80.46;97629.92;1820164;78;26194;-83
2021/03/25 04:52:35;;;;;;;140.03;74.85;;;;;;;2.15;80.48;97632.78;1820201;78;26677;-83
2021/03/25 04:55:22;;;;;;;142.50;75.97;;;;;;;2.20;80.47;97634.12;1820068;78;25666;-83
2021/03/25 04:57:57;;;;;;;147.50;78.10;;;;;;;2.20;80.46;97634.97;1820235;77;25819;-84
2021/03/25 05:00:41;;;;;;;146.87;75.22;;;;;;;2.20;80.47;97632.80;1820112;78;25948;-83
2021/03/25 05:03:22;;;;;;;141.65;74.10;;;;;;;2.20;80.46;97636.30;1820194;78;25635;-84
2021/03/25 05:05:55;;;;;;;144.25;75.32;;;;;;;2.22;80.46;97631.66;1820235;78;28497;-84
2021/03/25 05:08:32;;;;;;;143.15;74.30;;;;;;;2.22;80.45;97635.66;1820147;78;25677;-84
2021/03/25 05:11:05;;;;;;;139.37;72.53;;;;;;;2.21;80.45;97635.30;1818120;78;26245;-84
2021/03/25 05:13:40;;;;;;;133.43;70.65;;;;;;;2.21;80.45;97641.13;1818596;78;26223;-84
2021/03/25 05:16:33;;;;;;;135.00;72.82;;;;;;;2.21;80.50;97641.97;1819411;78;25753;-84
2021/03/25 05:19:22;;;;;;;137.30;73.40;;;;;;;2.23;80.51;97643.98;1788897;78;27505;-84
2021/03/25 05:22:39;;;;;;;146.72;77.62;;;;;;;2.25;80.53;97647.34;1819296;78;25802;-84
2021/03/25 05:25:31;;;;;;;174.65;91.55;;;;;;;2.31;80.58;97644.05;1819275;78;25718;-85
2021/03/25 05:28:15;;;;;;;162.47;88.75;;;;;;;2.35;80.50;97645.42;1819299;78;25277;-85
2021/03/25 05:30:46;;;;;;;171.75;93.20;;;;;;;2.38;80.45;97655.78;1819407;77;25803;-85
2021/03/25 05:33:17;;;;;;;174.55;91.67;;;;;;;2.39;80.43;97642.80;1819338;78;27549;-85
2021/03/25 05:35:49;;;;;;;174.15;93.05;;;;;;;2.41;80.39;97655.97;1819408;78;25643;-85
2021/03/25 05:38:20;;;;;;;174.53;91.40;;;;;;;2.41;80.37;97650.15;1819413;78;25720;-85
2021/03/25 05:41:04;;;;;;;174.20;90.05;;;;;;;2.41;80.36;97651.48;1819363;78;25884;-85
2021/03/25 05:44:15;;;;;;;179.42;91.10;;;;;;;2.43;80.36;97649.47;1819297;78;25710;-85
2021/03/25 05:47:05;;;;;;;162.05;87.37;;;;;;;2.44;80.41;97649.81;1819362;78;27521;-85
2021/03/25 05:50:01;;;;;;;200.68;93.80;;;;;;;2.46;80.39;97647.84;1818184;78;25776;-85
2021/03/25 05:53:01;;;;;;;200.68;96.02;;;;;;;2.46;80.41;97650.50;1819289;78;25645;-85
2021/03/25 05:55:54;;;;;;;174.40;89.20;;;;;;;2.49;80.44;97646.20;1819094;78;25719;-85
2021/03/25 05:58:47;;;;;;;169.68;88.12;;;;;;;2.51;80.47;97651.38;1819291;78;25820;-85
2021/03/25 06:01:46;;;;;;;176.57;88.87;;;;;;;2.53;80.47;97656.91;1819526;78;28439;-86
2021/03/25 06:04:25;;;;;;;167.43;83.95;;;;;;;2.54;80.46;97646.56;1819352;78;25705;-85
2021/03/25 06:07:19;;;;;;;153.62;79.87;;;;;;;2.58;80.45;97653.75;1818518;78;26204;-86
2021/03/25 06:10:04;;;;;;;165.30;81.65;;;;;;;2.61;80.37;97655.28;1819453;78;25743;-85
2021/03/25 06:13:05;;;;;;;151.72;77.20;;;;;;;2.64;80.39;97654.98;1790057;78;25846;-86
2021/03/25 06:16:11;;;;;;;156.43;80.42;;;;;;;2.71;80.47;97656.02;1819441;78;27704;-84
2021/03/25 06:19:05;;;;;;;156.82;78.75;;;;;;;2.75;80.42;97651.56;1819299;78;25212;-84
2021/03/25 06:22:09;;;;;;;154.72;80.85;;;;;;;2.80;80.46;97656.40;1819551;78;25745;-84
2021/03/25 06:25:05;;;;;;;167.43;81.90;;;;;;;2.84;80.38;97657.77;1819418;77;25746;-84
2021/03/25 06:28:04;;;;;;;165.07;80.75;;;;;;;2.88;80.34;97655.98;1819534;78;25749;-83
2021/03/25 06:30:40;;;;;;;155.48;80.65;;;;;;;2.95;80.33;97660.17;1819404;78;27542;-84
2021/03/25 06:33:31;;;;;;;158.90;82.62;;;;;;;2.94;80.26;97658.99;1819168;78;26293;-84
2021/03/25 06:36:10;;;;;;;157.35;83.55;;;;;;;2.92;80.25;97660.48;1812393;78;25630;-84
2021/03/25 06:38:42;;;;;;;162.47;81.40;;;;;;;3.02;80.37;97661.20;1819216;78;25761;-83
2021/03/25 06:41:18;;;;;;;155.40;84.03;;;;;;;3.08;80.39;97668.59;1819407;77;25707;-84
2021/03/25 06:43:53;;;;;;;154.93;78.05;;;;;;;3.14;80.34;97671.94;1819475;78;27491;-83
2021/03/25 06:46:31;;;;;;;157.03;79.60;;;;;;;3.19;80.26;97662.98;1784215;78;26219;-83
2021/03/25 06:49:04;;;;;;;159.55;79.72;;;;;;;3.21;80.15;97666.33;1819376;77;25721;-83
2021/03/25 06:51:36;;;;;;;;;;;;;;;3.30;80.20;97665.02;1822101;78;25678;-83
2021/03/25 06:54:23;;;;;;;155.25;77.00;;;;;;;3.38;80.23;97664.55;1819446;77;25774;-83
2021/03/25 06:56:54;;;;;;;153.53;77.45;;;;;;;3.42;80.16;97667.25;1819334;78;27472;-83
2021/03/25 06:59:29;;;;;;;153.23;81.32;;;;;;;3.48;80.05;97673.80;1819416;77;26072;-84
2021/03/25 07:02:28;;;;;;;157.62;82.40;;;;;;;3.52;79.99;97669.29;1813903;77;25784;-83
2021/03/25 07:04:59;;;;;;;166.62;83.27;;;;;;;3.58;79.95;97669.16;1819002;77;25514;-83
2021/03/25 07:07:35;;;;;;;157.13;82.23;;;;;;;3.65;79.90;97670.67;1819717;77;26255;-83
2021/03/25 07:10:04;;;;;;;154.32;79.65;;;;;;;3.68;79.96;97672.53;1819348;78;27599;-83
2021/03/25 07:12:39;;;;;;;155.27;81.22;;;;;;;3.70;79.94;97678.55;1819268;78;25699;-84
2021/03/25 07:15:12;;;;;;;156.22;79.53;;;;;;;3.77;79.90;97677.38;1824521;78;25741;-83
2021/03/25 07:17:42;;;;;;;145.38;78.35;;;;;;;3.82;79.77;97681.25;1823277;78;25709;-83
2021/03/25 07:20:27;;;;;;;144.47;76.53;;;;;;;3.88;79.77;97676.58;1825359;78;25788;-84
2021/03/25 07:23:09;;;;;;;137.37;75.78;;;;;;;3.95;79.71;97675.45;1824868;78;28483;-84
2021/03/25 07:25:41;;;;;;;143.07;78.15;;;;;;;4.01;79.60;97683.29;1824981;78;25655;-84
2021/03/25 07:28:19;;;;;;;135.80;74.65;;;;;;;4.04;79.57;97675.80;1825326;78;25892;-84
2021/03/25 07:30:57;;;;;;;125.25;67.62;;;;;;;4.14;79.57;97671.14;1825400;78;25771;-84
2021/03/25 07:33:29;;;;;;;128.47;69.67;;;;;;;4.22;79.44;97679.69;1825455;78;25693;-83
2021/03/25 07:36:10;;;;;;;121.22;69.15;;;;;;;4.29;79.25;97682.86;1825599;78;28343;-84
2021/03/25 07:38:40;;;;;;;123.47;68.67;;;;;;;4.35;79.14;97684.85;1823235;78;26215;-84
2021/03/25 07:41:26;;;;;;;136.82;75.10;;;;;;;4.36;79.04;97680.34;1825511;78;25942;-83
2021/03/25 07:44:06;;;;;;;139.90;76.07;;;;;;;4.40;79.02;97686.20;1825491;77;26534;-83
2021/03/25 07:46:49;;;;;;;140.47;76.82;;;;;;;4.47;79.16;97684.55;1825455;78;25729;-84
2021/03/25 07:49:29;;;;;;;148.70;81.80;;;;;;;4.55;79.02;97680.03;1825568;78;27683;-84
2021/03/25 07:52:01;;;;;;;134.78;77.12;;;;;;;4.63;78.82;97679.19;1825406;78;25675;-84
2021/03/25 07:54:36;;;;;;;133.60;75.72;;;;;;;4.65;78.59;97676.69;1825513;78;25687;-84
2021/03/25 07:57:15;;;;;;;135.20;74.17;;;;;;;4.73;78.50;97688.38;1825367;78;26529;-83
2021/03/25 07:59:53;;;;;;;134.60;74.17;;;;;;;4.73;78.30;97684.36;1825216;78;25663;-83
2021/03/25 08:02:36;;;;;;;134.57;71.33;;;;;;;4.82;78.44;97682.04;1825542;78;27491;-83
2021/03/25 08:05:25;;;;;;;132.67;74.45;;;;;;;4.87;78.49;97683.69;1825390;78;26114;-84
2021/03/25 08:07:57;;;;;;;128.62;73.25;;;;;;;4.92;78.39;97682.70;1825380;78;25761;-83
2021/03/25 08:10:41;;;;;;;134.72;76.77;;;;;;;5.02;78.32;97690.03;1824910;78;25769;-83
2021/03/25 08:13:26;;;;;;;133.30;73.80;;;;;;;5.10;78.27;97694.02;1825387;78;25841;-84
2021/03/25 08:16:10;;;;;;;108.78;61.58;;;;;;;5.17;78.21;97689.67;1825411;78;27551;-84
2021/03/25 08:18:58;;;;;;;116.67;65.92;;;;;;;5.25;77.79;97691.48;1825390;78;25813;-84
2021/03/25 08:22:02;;;;;;;125.20;68.25;;;;;;;5.28;77.66;97689.81;1825393;78;25704;-84
2021/03/25 08:24:56;;;;;;;96.15;55.85;;;;;;;5.40;77.91;97689.28;1825363;78;25820;-84
2021/03/25 08:27:41;;;;;;;66.45;38.63;;;;;;;5.49;77.43;97687.41;1823947;78;25712;-83
2021/03/25 08:30:31;;;;;;;70.25;40.92;;;;;;;5.52;76.86;97691.08;1825505;78;27487;-83
2021/03/25 08:33:13;;;;;;;111.05;60.48;;;;;;;5.59;76.53;97679.16;1825379;78;25705;-84
2021/03/25 08:36:12;;;;;;;121.00;69.87;;;;;;;5.68;76.66;97679.45;1825397;78;25658;-84
2021/03/25 08:39:20;;;;;;;104.38;60.03;;;;;;;5.74;76.51;97685.47;1824708;77;25618;-84
2021/03/25 08:42:29;;;;;;;106.55;60.50;;;;;;;5.74;76.23;97674.75;1825328;78;25785;-84
2021/03/25 08:45:23;;;;;;;79.62;47.05;;;;;;;5.74;76.25;97677.44;1825392;77;27341;-84
2021/03/25 08:48:08;;;;;;;86.10;48.92;;;;;;;5.82;75.91;97675.20;1825374;77;25751;-84
2021/03/25 08:50:52;;;;;;;98.22;53.48;;;;;;;5.80;75.70;97678.89;1825453;78;25717;-84
2021/03/25 08:53:42;;;;;;;101.90;61.45;;;;;;;5.80;75.74;97679.39;1825339;77;25805;-84
2021/03/25 08:56:30;;;;;;;93.45;53.08;;;;;;;5.86;75.82;97675.20;1825381;78;25944;-84
2021/03/25 08:59:02;;;;;;;90.07;53.15;;;;;;;5.93;75.79;97685.06;1825280;78;27483;-85
2021/03/25 09:04:22;;;;;;;81.55;47.00;;;;;;;5.96;75.50;97679.36;1836258;77;26192;-83
2021/03/25 09:06:51;;;;;;;79.42;46.40;;;;;;;5.93;75.45;97679.70;1818003;78;25888;-84
2021/03/25 09:09:33;;;;;;;66.57;40.28;;;;;;;5.95;75.26;97674.17;1818085;78;27481;-84
2021/03/25 09:12:02;;;;;;;65.83;40.40;;;;;;;5.98;74.91;97675.17;1782085;80;26463;-84
2021/03/25 09:14:31;;;;;;;73.35;42.40;;;;;;;6.03;74.26;97676.33;1721077;81;25785;-84
2021/03/25 09:17:06;;;;;;;73.67;42.38;;;;;;;6.12;74.16;97672.58;1754611;81;25721;-85
2021/03/25 09:19:44;;;;;;;64.05;39.10;;;;;;;6.14;73.85;97670.56;1754750;81;25675;-83
2021/03/25 09:22:37;;;;;;;59.48;36.42;;;;;;;6.25;73.93;97667.14;1754636;81;27310;-82
2021/03/25 09:25:25;;;;;;;62.45;39.95;;;;;;;6.34;73.42;97662.04;1749237;81;25714;-86
2021/03/25 09:28:02;;;;;;;70.35;39.78;;;;;;;6.44;72.96;97657.27;1753589;81;25809;-86
2021/03/25 09:30:50;;;;;;;102.38;54.80;;;;;;;6.54;72.89;97662.38;1754671;81;26215;-84
2021/03/25 09:33:51;;;;;;;56.53;34.25;;;;;;;6.66;72.42;97655.08;1754769;81;25791;-86
2021/03/25 09:36:24;;;;;;;45.73;29.48;;;;;;;6.70;72.18;97660.41;1754650;81;27548;-84
2021/03/25 09:39:03;;;;;;;45.00;28.95;;;;;;;6.68;71.58;97658.92;1782140;80;25774;-84
2021/03/25 09:41:40;;;;;;;44.95;28.62;;;;;;;6.62;71.20;97657.81;1780774;80;25735;-84
2021/03/25 09:44:17;;;;;;;47.27;27.10;;;;;;;6.66;70.89;97663.13;1782199;80;25699;-83
2021/03/25 09:47:05;;;;;;;45.92;27.48;;;;;;;6.66;70.82;97660.44;1782210;80;25920;-83
2021/03/25 09:49:59;;;;;;;45.67;29.12;;;;;;;6.64;70.23;97663.00;1782086;80;27482;-84
2021/03/25 09:52:40;;;;;;;44.88;29.02;;;;;;;6.65;69.83;97657.93;1778777;80;25726;-83
2021/03/25 09:55:12;;;;;;;51.88;30.30;;;;;;;6.60;69.42;97659.84;1782195;80;26359;-83
2021/03/25 09:57:43;;;;;;;50.52;31.80;;;;;;;6.62;69.18;97659.66;1782389;80;25730;-83
2021/03/25 10:00:28;;;;;;;50.33;32.33;;;;;;;6.61;69.05;97650.77;1782301;80;25860;-83
2021/03/25 10:02:59;;;;;;;56.25;33.42;;;;;;;6.62;68.93;97653.78;1783240;80;27676;-83
2021/03/25 10:05:35;;;;;;;59.80;34.75;;;;;;;6.65;68.73;97657.42;1785710;80;26200;-83
2021/03/25 10:08:14;;;;;;;60.43;36.23;;;;;;;6.73;68.79;97649.33;1785818;80;25756;-84
2021/03/25 10:10:59;;;;;;;63.25;36.05;;;;;;;6.81;68.12;97654.61;1783556;80;25767;-83
2021/03/25 10:13:43;;;;;;;62.00;36.35;;;;;;;6.79;67.78;97647.75;1785744;79;25781;-84
2021/03/25 10:16:39;;;;;;;55.70;34.20;;;;;;;6.82;68.38;97648.23;1785198;80;27858;-83
2021/03/25 10:19:10;;;;;;;60.00;36.08;;;;;;;6.93;68.10;97654.17;1785176;80;25684;-83
2021/03/25 10:21:59;;;;;;;52.85;35.00;;;;;;;7.05;67.73;97648.69;1785271;79;25774;-83
2021/03/25 10:24:34;;;;;;;57.62;34.03;;;;;;;7.15;67.55;97649.24;1785154;80;25710;-83
2021/03/25 10:27:19;;;;;;;53.63;33.65;;;;;;;7.25;67.25;97651.14;1784230;79;25734;-83
2021/03/25 10:29:49;;;;;;;54.25;32.60;;;;;;;7.30;66.77;97650.09;1775232;80;27690;-83
2021/03/25 10:32:30;;;;;;;55.12;34.60;;;;;;;7.21;66.55;97655.23;1785175;80;25722;-84
2021/03/25 10:35:01;;;;;;;56.30;34.33;;;;;;;7.11;66.40;97654.17;1785225;80;25644;-84
2021/03/25 10:37:39;;;;;;;60.12;35.75;;;;;;;7.10;66.31;97658.38;1784939;79;25711;-83
2021/03/25 10:40:39;;;;;;;56.20;34.18;;;;;;;7.07;66.12;97650.69;1785143;80;25663;-84
2021/03/25 10:43:15;;;;;;;60.30;35.50;;;;;;;7.01;65.79;97656.77;1691209;83;27721;-84
2021/03/25 10:46:04;;;;;;;60.30;36.35;;;;;;;6.96;65.62;97642.57;1691326;83;25872;-84
2021/03/25 10:48:44;;;;;;;60.40;36.50;;;;;;;7.02;65.53;97648.53;1752206;80;25761;-84
2021/03/25 10:51:16;;;;;;;59.65;36.58;;;;;;;7.06;65.44;97642.30;1785249;80;26248;-84
2021/03/25 10:53:54;;;;;;;60.30;36.00;;;;;;;7.13;65.22;97648.59;1785331;79;25723;-83
2021/03/25 10:56:37;;;;;;;57.15;36.00;;;;;;;7.22;65.21;97637.61;1785268;79;27566;-84
2021/03/25 10:59:17;;;;;;;61.98;36.88;;;;;;;7.33;64.73;97636.31;1785151;80;26152;-84
2021/03/25 11:04:34;;;;;;;55.23;35.50;;;;;;;7.52;64.30;97637.58;1849505;76;25684;-84
2021/03/25 11:07:20;;;;;;;61.48;36.70;;;;;;;7.55;64.62;97636.70;1820143;78;25678;-86
2021/03/25 11:09:58;;;;;;;57.73;35.13;;;;;;;7.63;64.05;97625.52;1820152;78;28437;-86
2021/03/25 11:12:31;;;;;;;55.03;35.43;;;;;;;7.65;63.04;97624.83;1819337;78;25303;-85
2021/03/25 11:15:04;;;;;;;57.73;36.93;;;;;;;7.67;63.36;97622.29;1819539;78;25746;-86
2021/03/25 11:17:35;;;;;;;55.85;34.58;;;;;;;7.79;63.23;97617.27;1819389;78;25660;-84
2021/03/25 11:20:08;;;;;;;58.40;35.03;;;;;;;7.90;62.79;97618.11;1820320;78;25736;-85
2021/03/25 11:22:36;;;;;;;57.62;36.05;;;;;;;8.01;63.15;97618.13;1820238;78;27522;-84
2021/03/25 11:25:09;;;;;;;59.30;37.38;;;;;;;8.18;62.84;97615.53;1820066;78;26362;-84
2021/03/25 11:27:38;;;;;;;56.53;36.58;;;;;;;8.21;62.68;97617.31;1820088;78;25693;-84
2021/03/25 11:30:36;;;;;;;60.08;37.45;;;;;;;8.15;62.31;97611.37;1820076;78;25694;-84
2021/03/25 11:33:23;;;;;;;60.55;37.85;;;;;;;8.16;62.33;97617.06;1820285;78;25768;-84
2021/03/25 11:35:50;;;;;;;52.10;33.75;;;;;;;8.17;62.07;97619.25;1820029;78;27502;-85
2021/03/25 11:38:29;;;;;;;60.15;37.30;;;;;;;8.21;62.14;97617.31;1820091;78;25713;-83
2021/03/25 11:41:23;;;;;;;53.65;35.98;;;;;;;8.14;61.92;97609.70;1820130;78;25696;-85
2021/03/25 11:44:01;;;;;;;56.02;35.88;;;;;;;8.18;61.62;97619.57;1820174;78;25805;-84
2021/03/25 11:46:45;;;;;;;55.58;34.65;;;;;;;8.13;61.28;97612.06;1820233;78;25835;-84
2021/03/25 11:49:18;;;;;;;51.02;35.38;;;;;;;7.97;61.31;97613.63;1820056;78;27505;-83
2021/03/25 11:51:59;;;;;;;58.90;35.48;;;;;;;7.88;60.96;97612.92;1819832;78;27122;-82
2021/03/25 11:54:35;;;;;;;56.68;35.75;;;;;;;7.87;61.33;97612.60;1819350;78;25737;-83
2021/03/25 11:57:26;;;;;;;61.42;37.63;;;;;;;7.78;61.02;97606.19;1820065;78;25954;-82
2021/03/25 12:00:11;;;;;;;54.30;33.85;;;;;;;7.77;61.12;97611.23;1820115;78;25862;-84
2021/03/25 12:02:40;;;;;;;57.27;34.70;;;;;;;7.76;61.24;97609.06;1796210;78;28471;-83
2021/03/25 12:05:34;;;;;;;57.35;35.68;;;;;;;7.77;61.00;97606.70;1793600;78;25762;-83
2021/03/25 12:08:19;;;;;;;49.03;32.53;;;;;;;7.79;61.09;97606.00;1821663;78;25709;-83
2021/03/25 12:10:59;;;;;;;61.05;35.75;;;;;;;7.81;60.14;97603.97;1823365;78;25746;-83
2021/03/25 12:13:26;;;;;;;53.70;32.60;;;;;;;7.83;60.80;97603.78;1823265;78;25682;-83
2021/03/25 12:15:54;;;;;;;50.75;32.42;;;;;;;7.91;60.19;97600.46;1822763;78;27465;-83
2021/03/25 12:18:37;;;;;;;51.48;31.65;;;;;;;7.92;60.11;97597.27;1822584;78;25717;-83
2021/03/25 12:21:10;;;;;;;50.63;33.15;;;;;;;8.02;59.99;97596.44;1822585;78;25659;-83
2021/03/25 12:23:43;;;;;;;54.55;34.63;;;;;;;7.93;60.34;97592.20;1822693;78;25763;-82
2021/03/25 12:26:16;;;;;;;60.45;33.85;;;;;;;7.80;60.46;97586.69;1822735;78;25748;-83